sensor_id;sensor_type;location;lat;lon;timestamp;pressure;altitude;pressure_sealevel;temperature;humidity
51530;BME280;37613;51.788;21.582;2023-05-10T00:02:33;100786.59;;;6.96;51.51
51530;BME280;37613;51.788;21.582;2023-05-10T00:16:09;100779.73;;;6.53;52.04
51530;BME280;37613;51.788;21.582;2023-05-10T00:21:02;100777.81;;;6.42;52.14
51530;BME280;37613;51.788;21.582;2023-05-10T00:25:21;100777.62;;;6.35;52.11
51530;BME280;37613;51.788;21.582;2023-05-10T00:29:45;100770.41;;;6.29;52.17
51530;BME280;37613;51.788;21.582;2023-05-10T00:34:34;100765.37;;;6.23;52.83
51530;BME280;37613;51.788;21.582;2023-05-10T00:38:51;100764.75;;;6.17;53.13
51530;BME280;37613;51.788;21.582;2023-05-10T00:48:47;100763.98;;;6.12;53.04
51530;BME280;37613;51.788;21.582;2023-05-10T01:04:33;100759.95;;;5.77;52.74
51530;BME280;37613;51.788;21.582;2023-05-10T01:19:51;100752.19;;;5.31;53.17
51530;BME280;37613;51.788;21.582;2023-05-10T02:08:27;100730.13;;;3.62;55.54
51530;BME280;37613;51.788;21.582;2023-05-10T02:13:01;100741.59;;;3.52;55.68
51530;BME280;37613;51.788;21.582;2023-05-10T02:33:18;100732.30;;;3.21;56.73
51530;BME280;37613;51.788;21.582;2023-05-10T02:54:28;100733.33;;;3.14;57.77
51530;BME280;37613;51.788;21.582;2023-05-10T03:50:31;100733.13;;;5.21;59.43
51530;BME280;37613;51.788;21.582;2023-05-10T04:06:16;100733.86;;;10.80;58.67
51530;BME280;37613;51.788;21.582;2023-05-10T04:10:33;100732.66;;;12.45;57.98
51530;BME280;37613;51.788;21.582;2023-05-10T04:15:02;100731.77;;;14.07;57.10
51530;BME280;37613;51.788;21.582;2023-05-10T04:19:38;100730.71;;;15.44;55.25
51530;BME280;37613;51.788;21.582;2023-05-10T04:23:52;100726.96;;;16.50;54.33
51530;BME280;37613;51.788;21.582;2023-05-10T04:28:06;100726.45;;;17.80;53.01
51530;BME280;37613;51.788;21.582;2023-05-10T04:32:13;100735.36;;;18.80;50.22
51530;BME280;37613;51.788;21.582;2023-05-10T04:36:17;100735.51;;;19.53;48.98
51530;BME280;37613;51.788;21.582;2023-05-10T04:40:30;100737.01;;;20.26;46.51
51530;BME280;37613;51.788;21.582;2023-05-10T04:44:49;100740.23;;;20.54;41.26
51530;BME280;37613;51.788;21.582;2023-05-10T04:48:59;100735.05;;;20.30;38.62
51530;BME280;37613;51.788;21.582;2023-05-10T04:57:35;100742.33;;;21.45;37.16
51530;BME280;37613;51.788;21.582;2023-05-10T05:01:45;100739.74;;;21.99;37.42
51530;BME280;37613;51.788;21.582;2023-05-10T05:05:47;100742.69;;;22.57;37.20
51530;BME280;37613;51.788;21.582;2023-05-10T05:09:50;100741.36;;;23.15;36.33
51530;BME280;37613;51.788;21.582;2023-05-10T05:13:52;100738.43;;;23.33;33.93
51530;BME280;37613;51.788;21.582;2023-05-10T05:18:16;100735.81;;;23.11;33.80
51530;BME280;37613;51.788;21.582;2023-05-10T05:22:19;100737.41;;;22.87;32.85
51530;BME280;37613;51.788;21.582;2023-05-10T05:26:31;100739.31;;;21.60;32.86
51530;BME280;37613;51.788;21.582;2023-05-10T05:30:38;100734.82;;;20.21;32.48
51530;BME280;37613;51.788;21.582;2023-05-10T05:34:41;100731.44;;;18.82;33.00
51530;BME280;37613;51.788;21.582;2023-05-10T05:38:47;100732.33;;;17.38;33.84
51530;BME280;37613;51.788;21.582;2023-05-10T05:42:54;100736.30;;;16.50;34.64
51530;BME280;37613;51.788;21.582;2023-05-10T05:47:01;100732.06;;;16.03;35.50
51530;BME280;37613;51.788;21.582;2023-05-10T05:51:04;100730.98;;;15.55;36.25
51530;BME280;37613;51.788;21.582;2023-05-10T05:55:10;100728.85;;;15.42;36.59
51530;BME280;37613;51.788;21.582;2023-05-10T05:59:16;100731.67;;;15.45;37.24
51530;BME280;37613;51.788;21.582;2023-05-10T06:03:22;100729.83;;;15.53;37.43
51530;BME280;37613;51.788;21.582;2023-05-10T06:07:32;100730.73;;;15.65;37.65
51530;BME280;37613;51.788;21.582;2023-05-10T06:11:35;100733.58;;;15.81;37.84
51530;BME280;37613;51.788;21.582;2023-05-10T06:20:41;100731.83;;;15.74;38.16
51530;BME280;37613;51.788;21.582;2023-05-10T06:24:44;100737.84;;;15.95;38.28
51530;BME280;37613;51.788;21.582;2023-05-10T06:28:50;100739.72;;;16.25;38.13
51530;BME280;37613;51.788;21.582;2023-05-10T06:32:54;100739.92;;;16.21;37.40
51530;BME280;37613;51.788;21.582;2023-05-10T06:36:57;100740.49;;;16.10;37.52
51530;BME280;37613;51.788;21.582;2023-05-10T06:40:59;100734.03;;;16.10;37.52
51530;BME280;37613;51.788;21.582;2023-05-10T06:45:01;100737.55;;;16.16;37.49
51530;BME280;37613;51.788;21.582;2023-05-10T06:49:04;100741.38;;;16.15;37.63
51530;BME280;37613;51.788;21.582;2023-05-10T06:53:06;100738.20;;;16.20;37.31
51530;BME280;37613;51.788;21.582;2023-05-10T06:57:08;100733.59;;;16.30;37.32
51530;BME280;37613;51.788;21.582;2023-05-10T07:01:13;100733.56;;;16.48;37.02
51530;BME280;37613;51.788;21.582;2023-05-10T07:05:15;100735.92;;;16.74;37.09
51530;BME280;37613;51.788;21.582;2023-05-10T07:09:17;100734.96;;;17.06;36.54
51530;BME280;37613;51.788;21.582;2023-05-10T07:13:19;100734.55;;;17.20;35.13
51530;BME280;37613;51.788;21.582;2023-05-10T07:17:22;100735.79;;;17.14;34.23
51530;BME280;37613;51.788;21.582;2023-05-10T07:21:24;100733.39;;;17.19;34.33
51530;BME280;37613;51.788;21.582;2023-05-10T07:25:26;100726.05;;;17.22;34.09
51530;BME280;37613;51.788;21.582;2023-05-10T07:29:28;100727.95;;;17.43;33.39
51530;BME280;37613;51.788;21.582;2023-05-10T07:33:31;100726.77;;;17.54;33.05
51530;BME280;37613;51.788;21.582;2023-05-10T07:37:33;100734.44;;;17.55;32.62
51530;BME280;37613;51.788;21.582;2023-05-10T07:41:35;100735.48;;;17.54;31.73
51530;BME280;37613;51.788;21.582;2023-05-10T07:45:39;100739.62;;;17.36;30.84
51530;BME280;37613;51.788;21.582;2023-05-10T07:49:41;100734.23;;;17.16;30.72
51530;BME280;37613;51.788;21.582;2023-05-10T07:53:44;100730.16;;;17.03;30.69
51530;BME280;37613;51.788;21.582;2023-05-10T07:57:46;100728.91;;;17.02;30.86
51530;BME280;37613;51.788;21.582;2023-05-10T08:01:49;100729.46;;;17.07;31.33
51530;BME280;37613;51.788;21.582;2023-05-10T08:05:51;100727.35;;;17.03;31.41
51530;BME280;37613;51.788;21.582;2023-05-10T08:09:56;100725.47;;;17.19;31.74
51530;BME280;37613;51.788;21.582;2023-05-10T08:13:58;100721.59;;;17.17;30.80
51530;BME280;37613;51.788;21.582;2023-05-10T08:18:04;100723.30;;;17.28;30.73
51530;BME280;37613;51.788;21.582;2023-05-10T08:22:06;100723.55;;;17.52;30.45
51530;BME280;37613;51.788;21.582;2023-05-10T08:26:08;100724.15;;;17.50;29.19
51530;BME280;37613;51.788;21.582;2023-05-10T08:30:11;100723.17;;;17.42;29.53
51530;BME280;37613;51.788;21.582;2023-05-10T08:34:16;100717.07;;;17.44;29.65
51530;BME280;37613;51.788;21.582;2023-05-10T08:38:18;100719.03;;;17.50;29.90
51530;BME280;37613;51.788;21.582;2023-05-10T08:42:22;100717.84;;;17.33;29.46
51530;BME280;37613;51.788;21.582;2023-05-10T08:46:28;100718.76;;;17.36;30.07
51530;BME280;37613;51.788;21.582;2023-05-10T08:50:35;100721.94;;;17.57;30.32
51530;BME280;37613;51.788;21.582;2023-05-10T08:54:38;100716.92;;;17.48;29.53
51530;BME280;37613;51.788;21.582;2023-05-10T08:58:42;100719.80;;;17.47;30.02
51530;BME280;37613;51.788;21.582;2023-05-10T09:02:48;100712.28;;;17.68;29.33
51530;BME280;37613;51.788;21.582;2023-05-10T09:06:53;100716.84;;;17.59;29.35
51530;BME280;37613;51.788;21.582;2023-05-10T09:10:55;100725.98;;;17.46;28.93
51530;BME280;37613;51.788;21.582;2023-05-10T09:14:59;100719.65;;;17.43;29.55
51530;BME280;37613;51.788;21.582;2023-05-10T09:19:05;100707.13;;;17.65;29.09
51530;BME280;37613;51.788;21.582;2023-05-10T09:23:08;100708.17;;;17.77;28.77
51530;BME280;37613;51.788;21.582;2023-05-10T09:27:10;100711.47;;;17.72;28.44
51530;BME280;37613;51.788;21.582;2023-05-10T09:31:15;100711.80;;;17.40;28.27
51530;BME280;37613;51.788;21.582;2023-05-10T09:35:20;100712.25;;;17.25;28.47
51530;BME280;37613;51.788;21.582;2023-05-10T09:39:33;100706.02;;;17.04;28.52
51530;BME280;37613;51.788;21.582;2023-05-10T09:43:38;100708.70;;;16.93;29.24
51530;BME280;37613;51.788;21.582;2023-05-10T09:47:40;100705.45;;;17.00;29.49
51530;BME280;37613;51.788;21.582;2023-05-10T09:51:42;100699.66;;;17.24;30.35
51530;BME280;37613;51.788;21.582;2023-05-10T09:55:46;100703.77;;;17.42;30.02
51530;BME280;37613;51.788;21.582;2023-05-10T09:59:51;100697.54;;;17.30;30.41
51530;BME280;37613;51.788;21.582;2023-05-10T10:03:55;100700.41;;;17.34;30.52
51530;BME280;37613;51.788;21.582;2023-05-10T10:08:00;100693.41;;;17.41;30.23
51530;BME280;37613;51.788;21.582;2023-05-10T10:12:05;100692.19;;;17.38;30.16
51530;BME280;37613;51.788;21.582;2023-05-10T10:16:08;100683.90;;;17.45;30.18
51530;BME280;37613;51.788;21.582;2023-05-10T10:20:11;100677.30;;;17.28;29.25
51530;BME280;37613;51.788;21.582;2023-05-10T10:24:13;100678.76;;;17.23;29.64
51530;BME280;37613;51.788;21.582;2023-05-10T10:37:14;100672.66;;;17.08;29.57
51530;BME280;37613;51.788;21.582;2023-05-10T10:41:33;100670.04;;;17.11;29.72
51530;BME280;37613;51.788;21.582;2023-05-10T10:45:39;100658.48;;;17.10;29.58
51530;BME280;37613;51.788;21.582;2023-05-10T10:49:50;100649.33;;;17.21;29.90
51530;BME280;37613;51.788;21.582;2023-05-10T10:54:08;100643.83;;;17.39;30.26
51530;BME280;37613;51.788;21.582;2023-05-10T10:58:29;100651.98;;;17.54;30.12
51530;BME280;37613;51.788;21.582;2023-05-10T11:02:33;100645.17;;;17.55;30.11
51530;BME280;37613;51.788;21.582;2023-05-10T11:06:36;100641.26;;;17.59;29.92
51530;BME280;37613;51.788;21.582;2023-05-10T11:10:39;100647.66;;;17.46;29.45
51530;BME280;37613;51.788;21.582;2023-05-10T11:14:42;100639.09;;;17.44;29.51
51530;BME280;37613;51.788;21.582;2023-05-10T11:18:54;100647.11;;;17.35;29.39
51530;BME280;37613;51.788;21.582;2023-05-10T11:23:11;100645.90;;;17.39;29.83
51530;BME280;37613;51.788;21.582;2023-05-10T11:27:20;100636.94;;;17.51;29.90
51530;BME280;37613;51.788;21.582;2023-05-10T11:31:22;100639.16;;;17.44;30.09
51530;BME280;37613;51.788;21.582;2023-05-10T11:35:28;100627.64;;;17.34;30.16
51530;BME280;37613;51.788;21.582;2023-05-10T11:39:31;100619.16;;;17.31;30.10
51530;BME280;37613;51.788;21.582;2023-05-10T11:43:33;100623.01;;;17.34;30.32
51530;BME280;37613;51.788;21.582;2023-05-10T11:47:37;100620.71;;;17.37;30.20
51530;BME280;37613;51.788;21.582;2023-05-10T11:51:41;100625.35;;;17.47;30.73
51530;BME280;37613;51.788;21.582;2023-05-10T11:55:48;100625.05;;;17.54;30.13
51530;BME280;37613;51.788;21.582;2023-05-10T11:59:53;100616.35;;;17.46;29.68
51530;BME280;37613;51.788;21.582;2023-05-10T12:03:57;100615.96;;;17.42;29.65
51530;BME280;37613;51.788;21.582;2023-05-10T12:08:11;100618.54;;;17.31;29.92
51530;BME280;37613;51.788;21.582;2023-05-10T12:12:17;100611.14;;;17.33;30.24
51530;BME280;37613;51.788;21.582;2023-05-10T12:16:28;100616.73;;;17.39;30.30
51530;BME280;37613;51.788;21.582;2023-05-10T12:20:30;100614.54;;;17.52;30.58
51530;BME280;37613;51.788;21.582;2023-05-10T12:24:37;100600.66;;;17.55;30.81
51530;BME280;37613;51.788;21.582;2023-05-10T12:28:42;100598.64;;;17.59;30.53
51530;BME280;37613;51.788;21.582;2023-05-10T12:32:44;100608.06;;;17.60;30.39
51530;BME280;37613;51.788;21.582;2023-05-10T12:36:50;100599.77;;;17.63;30.36
51530;BME280;37613;51.788;21.582;2023-05-10T12:40:55;100595.75;;;17.49;30.23
51530;BME280;37613;51.788;21.582;2023-05-10T12:44:58;100589.54;;;17.34;30.11
51530;BME280;37613;51.788;21.582;2023-05-10T12:49:00;100596.80;;;17.30;30.38
51530;BME280;37613;51.788;21.582;2023-05-10T12:53:02;100593.81;;;17.36;30.44
51530;BME280;37613;51.788;21.582;2023-05-10T12:57:07;100595.79;;;17.44;30.92
51530;BME280;37613;51.788;21.582;2023-05-10T13:01:09;100588.17;;;17.52;30.99
51530;BME280;37613;51.788;21.582;2023-05-10T13:05:11;100575.29;;;17.50;30.58
51530;BME280;37613;51.788;21.582;2023-05-10T13:09:24;100581.29;;;17.53;30.28
51530;BME280;37613;51.788;21.582;2023-05-10T13:14:19;100571.15;;;17.45;30.34
51530;BME280;37613;51.788;21.582;2023-05-10T13:18:24;100573.95;;;17.34;30.15
51530;BME280;37613;51.788;21.582;2023-05-10T13:22:27;100573.80;;;17.30;30.73
51530;BME280;37613;51.788;21.582;2023-05-10T13:26:30;100568.29;;;17.30;30.72
51530;BME280;37613;51.788;21.582;2023-05-10T13:30:32;100558.11;;;17.17;30.94
51530;BME280;37613;51.788;21.582;2023-05-10T13:34:34;100557.92;;;17.18;30.98
51530;BME280;37613;51.788;21.582;2023-05-10T13:38:37;100556.02;;;17.21;31.04
51530;BME280;37613;51.788;21.582;2023-05-10T13:42:39;100553.27;;;17.28;30.90
51530;BME280;37613;51.788;21.582;2023-05-10T13:46:41;100551.95;;;17.18;30.44
51530;BME280;37613;51.788;21.582;2023-05-10T13:50:44;100548.91;;;17.11;30.58
51530;BME280;37613;51.788;21.582;2023-05-10T13:54:46;100546.52;;;17.14;30.32
51530;BME280;37613;51.788;21.582;2023-05-10T13:58:48;100550.04;;;17.21;30.52
51530;BME280;37613;51.788;21.582;2023-05-10T14:02:50;100540.88;;;17.17;30.38
51530;BME280;37613;51.788;21.582;2023-05-10T14:06:52;100533.45;;;17.12;30.31
51530;BME280;37613;51.788;21.582;2023-05-10T14:10:54;100528.16;;;17.06;30.02
51530;BME280;37613;51.788;21.582;2023-05-10T14:14:58;100529.52;;;17.03;29.73
51530;BME280;37613;51.788;21.582;2023-05-10T14:19:00;100536.36;;;17.00;29.63
51530;BME280;37613;51.788;21.582;2023-05-10T14:23:03;100533.41;;;16.92;29.06
51530;BME280;37613;51.788;21.582;2023-05-10T14:27:05;100536.83;;;16.89;29.15
51530;BME280;37613;51.788;21.582;2023-05-10T14:31:07;100536.44;;;16.89;29.37
51530;BME280;37613;51.788;21.582;2023-05-10T14:35:09;100537.02;;;16.87;29.32
51530;BME280;37613;51.788;21.582;2023-05-10T14:39:12;100538.68;;;16.80;28.81
51530;BME280;37613;51.788;21.582;2023-05-10T14:43:15;100539.02;;;16.79;29.34
51530;BME280;37613;51.788;21.582;2023-05-10T14:47:20;100534.90;;;16.78;28.66
51530;BME280;37613;51.788;21.582;2023-05-10T14:51:22;100533.41;;;16.68;28.33
51530;BME280;37613;51.788;21.582;2023-05-10T14:55:29;100537.52;;;16.56;28.36
51530;BME280;37613;51.788;21.582;2023-05-10T14:59:32;100531.04;;;16.54;28.42
51530;BME280;37613;51.788;21.582;2023-05-10T15:03:34;100531.06;;;16.56;28.77
51530;BME280;37613;51.788;21.582;2023-05-10T15:07:36;100528.86;;;16.60;28.94
51530;BME280;37613;51.788;21.582;2023-05-10T15:11:41;100528.65;;;16.61;28.71
51530;BME280;37613;51.788;21.582;2023-05-10T15:15:49;100528.74;;;16.61;29.02
51530;BME280;37613;51.788;21.582;2023-05-10T15:19:54;100526.30;;;16.60;29.03
51530;BME280;37613;51.788;21.582;2023-05-10T15:23:57;100526.73;;;16.55;29.02
51530;BME280;37613;51.788;21.582;2023-05-10T15:28:03;100524.15;;;16.52;29.08
51530;BME280;37613;51.788;21.582;2023-05-10T15:32:08;100520.38;;;16.52;29.20
51530;BME280;37613;51.788;21.582;2023-05-10T15:36:10;100516.33;;;16.55;29.34
51530;BME280;37613;51.788;21.582;2023-05-10T15:40:17;100518.23;;;16.52;29.07
51530;BME280;37613;51.788;21.582;2023-05-10T15:44:22;100517.73;;;16.45;28.76
51530;BME280;37613;51.788;21.582;2023-05-10T15:48:33;100515.70;;;16.38;28.76
51530;BME280;37613;51.788;21.582;2023-05-10T15:52:41;100512.23;;;16.32;28.89
51530;BME280;37613;51.788;21.582;2023-05-10T15:56:43;100504.68;;;16.30;29.02
51530;BME280;37613;51.788;21.582;2023-05-10T16:00:46;100510.25;;;16.31;29.11
51530;BME280;37613;51.788;21.582;2023-05-10T16:04:53;100511.21;;;16.26;29.14
51530;BME280;37613;51.788;21.582;2023-05-10T16:09:00;100512.80;;;16.18;28.98
51530;BME280;37613;51.788;21.582;2023-05-10T16:13:06;100512.66;;;16.13;29.28
51530;BME280;37613;51.788;21.582;2023-05-10T16:17:08;100513.13;;;16.09;29.56
51530;BME280;37613;51.788;21.582;2023-05-10T16:21:15;100504.48;;;15.98;30.12
51530;BME280;37613;51.788;21.582;2023-05-10T16:25:20;100514.32;;;16.00;30.07
51530;BME280;37613;51.788;21.582;2023-05-10T16:29:24;100513.00;;;15.94;30.30
51530;BME280;37613;51.788;21.582;2023-05-10T16:33:29;100518.02;;;15.89;30.20
51530;BME280;37613;51.788;21.582;2023-05-10T16:37:32;100511.77;;;15.82;30.25
51530;BME280;37613;51.788;21.582;2023-05-10T16:41:39;100512.46;;;15.78;30.29
51530;BME280;37613;51.788;21.582;2023-05-10T16:45:44;100510.51;;;15.71;30.36
51530;BME280;37613;51.788;21.582;2023-05-10T16:49:47;100508.64;;;15.63;30.69
51530;BME280;37613;51.788;21.582;2023-05-10T16:53:56;100510.13;;;15.58;30.95
51530;BME280;37613;51.788;21.582;2023-05-10T16:57:59;100513.79;;;15.53;30.79
51530;BME280;37613;51.788;21.582;2023-05-10T17:02:04;100519.52;;;15.49;31.15
51530;BME280;37613;51.788;21.582;2023-05-10T17:06:11;100521.52;;;15.43;31.30
51530;BME280;37613;51.788;21.582;2023-05-10T17:10:22;100526.80;;;15.36;31.42
51530;BME280;37613;51.788;21.582;2023-05-10T17:14:24;100527.55;;;15.27;31.59
51530;BME280;37613;51.788;21.582;2023-05-10T17:18:27;100525.39;;;15.17;31.49
51530;BME280;37613;51.788;21.582;2023-05-10T17:22:31;100528.27;;;15.09;31.48
51530;BME280;37613;51.788;21.582;2023-05-10T17:26:43;100525.30;;;15.00;31.58
51530;BME280;37613;51.788;21.582;2023-05-10T17:30:46;100525.11;;;14.90;31.83
51530;BME280;37613;51.788;21.582;2023-05-10T17:34:51;100532.48;;;14.79;31.89
51530;BME280;37613;51.788;21.582;2023-05-10T17:39:03;100536.52;;;14.68;32.16
51530;BME280;37613;51.788;21.582;2023-05-10T17:43:17;100538.70;;;14.58;32.35
51530;BME280;37613;51.788;21.582;2023-05-10T17:47:24;100542.71;;;14.45;32.67
51530;BME280;37613;51.788;21.582;2023-05-10T17:51:37;100548.81;;;14.31;32.84
51530;BME280;37613;51.788;21.582;2023-05-10T17:55:51;100551.65;;;14.17;33.11
51530;BME280;37613;51.788;21.582;2023-05-10T18:00:01;100557.66;;;14.03;33.14
51530;BME280;37613;51.788;21.582;2023-05-10T18:04:14;100554.98;;;13.89;33.70
51530;BME280;37613;51.788;21.582;2023-05-10T18:08:27;100559.89;;;13.72;34.19
51530;BME280;37613;51.788;21.582;2023-05-10T18:12:48;100563.59;;;13.54;34.07
51530;BME280;37613;51.788;21.582;2023-05-10T18:17:01;100570.77;;;13.35;34.44
51530;BME280;37613;51.788;21.582;2023-05-10T18:21:14;100569.58;;;13.18;34.83
51530;BME280;37613;51.788;21.582;2023-05-10T18:25:34;100566.86;;;13.01;34.90
51530;BME280;37613;51.788;21.582;2023-05-10T18:29:46;100571.94;;;12.85;35.35
51530;BME280;37613;51.788;21.582;2023-05-10T18:34:14;100577.92;;;12.70;35.99
51530;BME280;37613;51.788;21.582;2023-05-10T18:38:36;100582.16;;;12.54;36.22
51530;BME280;37613;51.788;21.582;2023-05-10T18:43:06;100582.44;;;12.39;35.95
51530;BME280;37613;51.788;21.582;2023-05-10T18:47:35;100581.67;;;12.21;36.11
51530;BME280;37613;51.788;21.582;2023-05-10T19:02:29;100604.64;;;11.93;38.15
51530;BME280;37613;51.788;21.582;2023-05-10T19:07:07;100610.16;;;11.83;38.00
51530;BME280;37613;51.788;21.582;2023-05-10T19:11:23;100612.17;;;11.74;38.18
51530;BME280;37613;51.788;21.582;2023-05-10T19:21:05;100609.63;;;11.58;38.08
51530;BME280;37613;51.788;21.582;2023-05-10T19:25:13;100612.06;;;11.49;38.32
51530;BME280;37613;51.788;21.582;2023-05-10T19:29:47;100612.20;;;11.42;38.64
51530;BME280;37613;51.788;21.582;2023-05-10T19:45:12;100619.23;;;11.17;39.27
51530;BME280;37613;51.788;21.582;2023-05-10T20:05:32;100632.84;;;10.84;39.67
51530;BME280;37613;51.788;21.582;2023-05-10T20:10:15;100636.60;;;10.76;39.77
51530;BME280;37613;51.788;21.582;2023-05-10T20:19:50;100636.68;;;10.65;40.09
51530;BME280;37613;51.788;21.582;2023-05-10T20:24:45;100636.73;;;10.60;40.62
51530;BME280;37613;51.788;21.582;2023-05-10T20:29:02;100634.88;;;10.56;40.50
51530;BME280;37613;51.788;21.582;2023-05-10T20:33:29;100637.54;;;10.52;41.06
51530;BME280;37613;51.788;21.582;2023-05-10T20:38:08;100635.92;;;10.47;41.20
51530;BME280;37613;51.788;21.582;2023-05-10T20:42:37;100637.34;;;10.45;40.97
51530;BME280;37613;51.788;21.582;2023-05-10T20:47:16;100634.97;;;10.44;40.97
51530;BME280;37613;51.788;21.582;2023-05-10T21:02:34;100648.77;;;10.30;41.45
51530;BME280;37613;51.788;21.582;2023-05-10T21:07:15;100655.21;;;10.27;41.63
51530;BME280;37613;51.788;21.582;2023-05-10T21:21:41;100662.06;;;10.10;41.94
51530;BME280;37613;51.788;21.582;2023-05-10T21:41:50;100666.02;;;9.87;42.34
51530;BME280;37613;51.788;21.582;2023-05-10T22:01:04;100670.48;;;9.67;43.04
51530;BME280;37613;51.788;21.582;2023-05-10T22:10:48;100673.30;;;9.57;43.28
51530;BME280;37613;51.788;21.582;2023-05-10T22:15:36;100677.67;;;9.54;43.37
51530;BME280;37613;51.788;21.582;2023-05-10T22:30:29;100682.79;;;9.45;43.43
51530;BME280;37613;51.788;21.582;2023-05-10T23:11:30;100691.72;;;9.16;43.68
51530;BME280;37613;51.788;21.582;2023-05-10T23:16:15;100691.07;;;9.14;43.55
51530;BME280;37613;51.788;21.582;2023-05-10T23:31:43;100692.95;;;8.90;43.81
51530;BME280;37613;51.788;21.582;2023-05-10T23:51:15;100698.58;;;8.56;44.04
